sensor_id;sensor_type;location;lat;lon;timestamp;P1;durP1;ratioP1;P2;durP2;ratioP2
16822;SDS011;8528;49.976;11.858;2024-01-30T00:02:25;7.43;;;4.00;;
16822;SDS011;8528;49.976;11.858;2024-01-30T00:04:52;6.50;;;3.90;;
16822;SDS011;8528;49.976;11.858;2024-01-30T00:07:19;6.50;;;3.83;;
16822;SDS011;8528;49.976;11.858;2024-01-30T00:09:46;6.33;;;3.47;;
16822;SDS011;8528;49.976;11.858;2024-01-30T00:12:15;6.60;;;3.40;;
16822;SDS011;8528;49.976;11.858;2024-01-30T00:14:42;6.13;;;3.93;;
16822;SDS011;8528;49.976;11.858;2024-01-30T00:17:12;4.67;;;4.07;;
16822;SDS011;8528;49.976;11.858;2024-01-30T00:19:38;7.77;;;4.57;;
16822;SDS011;8528;49.976;11.858;2024-01-30T00:22:06;7.07;;;4.07;;
16822;SDS011;8528;49.976;11.858;2024-01-30T00:24:33;7.70;;;4.50;;
16822;SDS011;8528;49.976;11.858;2024-01-30T00:27:00;7.83;;;4.47;;
16822;SDS011;8528;49.976;11.858;2024-01-30T00:29:27;6.93;;;3.93;;
16822;SDS011;8528;49.976;11.858;2024-01-30T00:31:57;4.63;;;4.00;;
16822;SDS011;8528;49.976;11.858;2024-01-30T00:34:23;7.53;;;4.23;;
16822;SDS011;8528;49.976;11.858;2024-01-30T00:36:50;7.37;;;3.67;;
16822;SDS011;8528;49.976;11.858;2024-01-30T00:39:17;6.87;;;4.40;;
16822;SDS011;8528;49.976;11.858;2024-01-30T00:41:45;7.27;;;4.10;;
16822;SDS011;8528;49.976;11.858;2024-01-30T00:44:13;9.07;;;4.37;;
16822;SDS011;8528;49.976;11.858;2024-01-30T00:46:39;7.00;;;4.00;;
16822;SDS011;8528;49.976;11.858;2024-01-30T00:49:06;7.97;;;4.30;;
16822;SDS011;8528;49.976;11.858;2024-01-30T00:51:33;7.83;;;4.07;;
16822;SDS011;8528;49.976;11.858;2024-01-30T00:54:00;7.60;;;4.60;;
16822;SDS011;8528;49.976;11.858;2024-01-30T00:56:27;6.07;;;3.80;;
16822;SDS011;8528;49.976;11.858;2024-01-30T00:58:54;7.77;;;4.17;;
16822;SDS011;8528;49.976;11.858;2024-01-30T01:01:21;11.33;;;4.17;;
16822;SDS011;8528;49.976;11.858;2024-01-30T01:03:48;7.77;;;4.57;;
16822;SDS011;8528;49.976;11.858;2024-01-30T01:06:15;7.97;;;4.07;;
16822;SDS011;8528;49.976;11.858;2024-01-30T01:08:42;7.20;;;4.20;;
16822;SDS011;8528;49.976;11.858;2024-01-30T01:11:09;6.47;;;4.03;;
16822;SDS011;8528;49.976;11.858;2024-01-30T01:13:36;7.03;;;4.23;;
16822;SDS011;8528;49.976;11.858;2024-01-30T01:16:03;7.13;;;4.40;;
16822;SDS011;8528;49.976;11.858;2024-01-30T01:18:30;4.83;;;3.73;;
16822;SDS011;8528;49.976;11.858;2024-01-30T01:20:57;6.97;;;4.17;;
16822;SDS011;8528;49.976;11.858;2024-01-30T01:23:24;8.80;;;3.93;;
16822;SDS011;8528;49.976;11.858;2024-01-30T01:25:51;6.33;;;3.97;;
16822;SDS011;8528;49.976;11.858;2024-01-30T01:28:18;4.07;;;3.43;;
16822;SDS011;8528;49.976;11.858;2024-01-30T01:30:45;5.70;;;3.80;;
16822;SDS011;8528;49.976;11.858;2024-01-30T01:33:12;8.97;;;4.23;;
16822;SDS011;8528;49.976;11.858;2024-01-30T01:35:41;6.73;;;3.53;;
16822;SDS011;8528;49.976;11.858;2024-01-30T01:38:08;7.10;;;4.50;;
16822;SDS011;8528;49.976;11.858;2024-01-30T01:40:35;7.03;;;3.63;;
16822;SDS011;8528;49.976;11.858;2024-01-30T01:43:03;6.30;;;3.90;;
16822;SDS011;8528;49.976;11.858;2024-01-30T01:45:31;7.93;;;4.47;;
16822;SDS011;8528;49.976;11.858;2024-01-30T01:47:58;8.17;;;4.40;;
16822;SDS011;8528;49.976;11.858;2024-01-30T01:50:25;5.00;;;3.90;;
16822;SDS011;8528;49.976;11.858;2024-01-30T01:52:52;6.37;;;3.47;;
16822;SDS011;8528;49.976;11.858;2024-01-30T01:55:21;5.67;;;3.80;;
16822;SDS011;8528;49.976;11.858;2024-01-30T01:57:49;7.03;;;4.03;;
16822;SDS011;8528;49.976;11.858;2024-01-30T02:00:16;5.27;;;4.00;;
16822;SDS011;8528;49.976;11.858;2024-01-30T02:02:45;6.57;;;3.90;;
16822;SDS011;8528;49.976;11.858;2024-01-30T02:05:14;5.10;;;3.73;;
16822;SDS011;8528;49.976;11.858;2024-01-30T02:07:42;5.40;;;3.67;;
16822;SDS011;8528;49.976;11.858;2024-01-30T02:10:10;5.63;;;4.03;;
16822;SDS011;8528;49.976;11.858;2024-01-30T02:12:37;5.17;;;3.60;;
16822;SDS011;8528;49.976;11.858;2024-01-30T02:15:04;6.17;;;3.80;;
16822;SDS011;8528;49.976;11.858;2024-01-30T02:17:32;6.50;;;3.90;;
16822;SDS011;8528;49.976;11.858;2024-01-30T02:19:59;6.37;;;4.00;;
16822;SDS011;8528;49.976;11.858;2024-01-30T02:22:26;6.27;;;3.50;;
16822;SDS011;8528;49.976;11.858;2024-01-30T02:24:53;5.47;;;3.30;;
16822;SDS011;8528;49.976;11.858;2024-01-30T02:27:20;5.37;;;3.57;;
16822;SDS011;8528;49.976;11.858;2024-01-30T02:29:47;8.17;;;4.93;;
16822;SDS011;8528;49.976;11.858;2024-01-30T02:32:14;8.83;;;5.37;;
16822;SDS011;8528;49.976;11.858;2024-01-30T02:34:41;8.00;;;4.23;;
16822;SDS011;8528;49.976;11.858;2024-01-30T02:37:08;4.93;;;3.50;;
16822;SDS011;8528;49.976;11.858;2024-01-30T02:39:35;5.53;;;3.40;;
16822;SDS011;8528;49.976;11.858;2024-01-30T02:42:01;5.37;;;3.90;;
16822;SDS011;8528;49.976;11.858;2024-01-30T02:44:28;5.47;;;3.33;;
16822;SDS011;8528;49.976;11.858;2024-01-30T02:46:55;5.50;;;3.50;;
16822;SDS011;8528;49.976;11.858;2024-01-30T02:49:22;7.40;;;3.93;;
16822;SDS011;8528;49.976;11.858;2024-01-30T02:51:49;5.30;;;3.73;;
16822;SDS011;8528;49.976;11.858;2024-01-30T02:54:17;5.23;;;3.60;;
16822;SDS011;8528;49.976;11.858;2024-01-30T02:56:43;5.63;;;3.90;;
16822;SDS011;8528;49.976;11.858;2024-01-30T02:59:10;7.17;;;3.80;;
16822;SDS011;8528;49.976;11.858;2024-01-30T03:01:44;5.03;;;3.60;;
16822;SDS011;8528;49.976;11.858;2024-01-30T03:04:11;5.07;;;3.40;;
16822;SDS011;8528;49.976;11.858;2024-01-30T03:06:39;5.53;;;3.60;;
16822;SDS011;8528;49.976;11.858;2024-01-30T03:09:12;5.17;;;3.53;;
16822;SDS011;8528;49.976;11.858;2024-01-30T03:11:39;6.17;;;3.77;;
16822;SDS011;8528;49.976;11.858;2024-01-30T03:14:06;6.90;;;3.60;;
16822;SDS011;8528;49.976;11.858;2024-01-30T03:16:34;4.70;;;3.37;;
16822;SDS011;8528;49.976;11.858;2024-01-30T03:19:01;5.90;;;3.80;;
16822;SDS011;8528;49.976;11.858;2024-01-30T03:21:29;5.10;;;3.63;;
16822;SDS011;8528;49.976;11.858;2024-01-30T03:23:56;8.73;;;4.00;;
16822;SDS011;8528;49.976;11.858;2024-01-30T03:26:22;5.83;;;3.50;;
16822;SDS011;8528;49.976;11.858;2024-01-30T03:28:49;4.80;;;3.47;;
16822;SDS011;8528;49.976;11.858;2024-01-30T03:31:16;6.50;;;3.93;;
16822;SDS011;8528;49.976;11.858;2024-01-30T03:33:43;5.03;;;3.60;;
16822;SDS011;8528;49.976;11.858;2024-01-30T03:36:10;5.73;;;3.43;;
16822;SDS011;8528;49.976;11.858;2024-01-30T03:38:37;5.97;;;3.80;;
16822;SDS011;8528;49.976;11.858;2024-01-30T03:41:07;4.53;;;3.83;;
16822;SDS011;8528;49.976;11.858;2024-01-30T03:43:34;5.53;;;3.97;;
16822;SDS011;8528;49.976;11.858;2024-01-30T03:46:01;5.33;;;3.80;;
16822;SDS011;8528;49.976;11.858;2024-01-30T03:48:29;5.53;;;3.70;;
16822;SDS011;8528;49.976;11.858;2024-01-30T03:50:56;4.90;;;3.53;;
16822;SDS011;8528;49.976;11.858;2024-01-30T03:53:23;6.77;;;4.13;;
16822;SDS011;8528;49.976;11.858;2024-01-30T03:55:50;5.40;;;3.70;;
16822;SDS011;8528;49.976;11.858;2024-01-30T03:58:17;4.53;;;3.50;;
16822;SDS011;8528;49.976;11.858;2024-01-30T04:00:44;5.83;;;3.80;;
16822;SDS011;8528;49.976;11.858;2024-01-30T04:03:11;7.70;;;3.97;;
16822;SDS011;8528;49.976;11.858;2024-01-30T04:05:38;8.40;;;3.27;;
16822;SDS011;8528;49.976;11.858;2024-01-30T04:08:05;5.70;;;3.87;;
16822;SDS011;8528;49.976;11.858;2024-01-30T04:10:32;5.20;;;3.53;;
16822;SDS011;8528;49.976;11.858;2024-01-30T04:12:59;3.97;;;3.50;;
16822;SDS011;8528;49.976;11.858;2024-01-30T04:15:26;4.30;;;3.73;;
16822;SDS011;8528;49.976;11.858;2024-01-30T04:17:59;6.70;;;3.90;;
16822;SDS011;8528;49.976;11.858;2024-01-30T04:20:26;5.77;;;4.07;;
16822;SDS011;8528;49.976;11.858;2024-01-30T04:22:53;8.30;;;3.73;;
16822;SDS011;8528;49.976;11.858;2024-01-30T04:25:20;5.60;;;3.60;;
16822;SDS011;8528;49.976;11.858;2024-01-30T04:27:47;4.07;;;3.63;;
16822;SDS011;8528;49.976;11.858;2024-01-30T04:30:14;5.50;;;3.80;;
16822;SDS011;8528;49.976;11.858;2024-01-30T04:32:41;5.63;;;3.97;;
16822;SDS011;8528;49.976;11.858;2024-01-30T04:35:09;4.87;;;3.87;;
16822;SDS011;8528;49.976;11.858;2024-01-30T04:37:37;7.43;;;4.63;;
16822;SDS011;8528;49.976;11.858;2024-01-30T04:40:05;5.57;;;4.23;;
16822;SDS011;8528;49.976;11.858;2024-01-30T04:42:32;6.97;;;4.77;;
16822;SDS011;8528;49.976;11.858;2024-01-30T04:44:59;6.07;;;4.27;;
16822;SDS011;8528;49.976;11.858;2024-01-30T04:47:26;4.97;;;4.00;;
16822;SDS011;8528;49.976;11.858;2024-01-30T04:49:53;8.17;;;4.93;;
16822;SDS011;8528;49.976;11.858;2024-01-30T04:52:20;6.57;;;4.93;;
16822;SDS011;8528;49.976;11.858;2024-01-30T04:54:47;8.50;;;4.30;;
16822;SDS011;8528;49.976;11.858;2024-01-30T04:57:14;6.40;;;4.23;;
16822;SDS011;8528;49.976;11.858;2024-01-30T04:59:41;6.47;;;4.37;;
16822;SDS011;8528;49.976;11.858;2024-01-30T05:02:08;11.10;;;6.57;;
16822;SDS011;8528;49.976;11.858;2024-01-30T05:04:35;10.60;;;5.90;;
16822;SDS011;8528;49.976;11.858;2024-01-30T05:07:01;9.60;;;5.37;;
16822;SDS011;8528;49.976;11.858;2024-01-30T05:09:29;9.00;;;5.70;;
16822;SDS011;8528;49.976;11.858;2024-01-30T05:11:56;10.80;;;6.53;;
16822;SDS011;8528;49.976;11.858;2024-01-30T05:14:24;12.37;;;6.33;;
16822;SDS011;8528;49.976;11.858;2024-01-30T05:16:51;8.83;;;5.90;;
16822;SDS011;8528;49.976;11.858;2024-01-30T05:19:18;9.10;;;6.57;;
16822;SDS011;8528;49.976;11.858;2024-01-30T05:21:45;10.73;;;6.57;;
16822;SDS011;8528;49.976;11.858;2024-01-30T05:24:12;11.43;;;6.73;;
16822;SDS011;8528;49.976;11.858;2024-01-30T05:26:39;9.97;;;7.00;;
16822;SDS011;8528;49.976;11.858;2024-01-30T05:29:06;12.77;;;7.00;;
16822;SDS011;8528;49.976;11.858;2024-01-30T05:31:34;13.50;;;7.03;;
16822;SDS011;8528;49.976;11.858;2024-01-30T05:34:01;13.03;;;7.33;;
16822;SDS011;8528;49.976;11.858;2024-01-30T05:36:28;11.63;;;6.97;;
16822;SDS011;8528;49.976;11.858;2024-01-30T05:38:55;13.93;;;6.77;;
16822;SDS011;8528;49.976;11.858;2024-01-30T05:41:24;14.67;;;7.60;;
16822;SDS011;8528;49.976;11.858;2024-01-30T05:43:50;12.03;;;7.60;;
16822;SDS011;8528;49.976;11.858;2024-01-30T05:46:17;12.83;;;6.70;;
16822;SDS011;8528;49.976;11.858;2024-01-30T05:48:48;11.37;;;8.03;;
16822;SDS011;8528;49.976;11.858;2024-01-30T05:51:15;13.87;;;7.83;;
16822;SDS011;8528;49.976;11.858;2024-01-30T05:53:42;12.73;;;7.73;;
16822;SDS011;8528;49.976;11.858;2024-01-30T05:56:09;11.70;;;8.10;;
16822;SDS011;8528;49.976;11.858;2024-01-30T05:58:36;18.83;;;9.70;;
16822;SDS011;8528;49.976;11.858;2024-01-30T06:01:07;14.83;;;9.33;;
16822;SDS011;8528;49.976;11.858;2024-01-30T06:03:35;13.80;;;8.73;;
16822;SDS011;8528;49.976;11.858;2024-01-30T06:06:02;15.33;;;8.80;;
16822;SDS011;8528;49.976;11.858;2024-01-30T06:08:29;13.90;;;8.63;;
16822;SDS011;8528;49.976;11.858;2024-01-30T06:10:56;12.73;;;8.80;;
16822;SDS011;8528;49.976;11.858;2024-01-30T06:13:23;14.43;;;8.03;;
16822;SDS011;8528;49.976;11.858;2024-01-30T06:15:50;13.33;;;8.03;;
16822;SDS011;8528;49.976;11.858;2024-01-30T06:18:17;11.83;;;7.10;;
16822;SDS011;8528;49.976;11.858;2024-01-30T06:20:44;11.93;;;6.33;;
16822;SDS011;8528;49.976;11.858;2024-01-30T06:23:11;12.50;;;7.17;;
16822;SDS011;8528;49.976;11.858;2024-01-30T06:25:40;11.87;;;7.10;;
16822;SDS011;8528;49.976;11.858;2024-01-30T06:28:07;13.17;;;7.67;;
16822;SDS011;8528;49.976;11.858;2024-01-30T06:30:33;11.43;;;7.50;;
16822;SDS011;8528;49.976;11.858;2024-01-30T06:33:02;13.20;;;7.80;;
16822;SDS011;8528;49.976;11.858;2024-01-30T06:35:29;11.97;;;7.57;;
16822;SDS011;8528;49.976;11.858;2024-01-30T06:37:56;11.33;;;8.00;;
16822;SDS011;8528;49.976;11.858;2024-01-30T06:40:26;13.40;;;8.13;;
16822;SDS011;8528;49.976;11.858;2024-01-30T06:42:53;12.20;;;8.07;;
16822;SDS011;8528;49.976;11.858;2024-01-30T06:45:20;13.60;;;8.93;;
16822;SDS011;8528;49.976;11.858;2024-01-30T06:47:48;13.43;;;8.07;;
16822;SDS011;8528;49.976;11.858;2024-01-30T06:50:15;16.20;;;10.60;;
16822;SDS011;8528;49.976;11.858;2024-01-30T06:52:42;16.53;;;9.70;;
16822;SDS011;8528;49.976;11.858;2024-01-30T06:55:09;13.57;;;9.53;;
16822;SDS011;8528;49.976;11.858;2024-01-30T06:57:36;12.23;;;8.23;;
16822;SDS011;8528;49.976;11.858;2024-01-30T07:00:03;13.10;;;8.77;;
16822;SDS011;8528;49.976;11.858;2024-01-30T07:02:30;15.13;;;9.57;;
16822;SDS011;8528;49.976;11.858;2024-01-30T07:04:58;12.03;;;9.53;;
16822;SDS011;8528;49.976;11.858;2024-01-30T07:07:25;16.67;;;9.83;;
16822;SDS011;8528;49.976;11.858;2024-01-30T07:09:52;15.47;;;11.37;;
16822;SDS011;8528;49.976;11.858;2024-01-30T07:12:23;13.57;;;9.33;;
16822;SDS011;8528;49.976;11.858;2024-01-30T07:14:51;15.73;;;10.33;;
16822;SDS011;8528;49.976;11.858;2024-01-30T07:17:19;16.80;;;9.70;;
16822;SDS011;8528;49.976;11.858;2024-01-30T07:19:46;18.27;;;9.67;;
16822;SDS011;8528;49.976;11.858;2024-01-30T07:22:13;13.90;;;9.03;;
16822;SDS011;8528;49.976;11.858;2024-01-30T07:24:43;14.27;;;9.83;;
16822;SDS011;8528;49.976;11.858;2024-01-30T07:27:14;13.87;;;8.90;;
16822;SDS011;8528;49.976;11.858;2024-01-30T07:29:43;15.10;;;8.53;;
16822;SDS011;8528;49.976;11.858;2024-01-30T07:32:11;11.53;;;8.13;;
16822;SDS011;8528;49.976;11.858;2024-01-30T07:34:37;10.83;;;8.47;;
16822;SDS011;8528;49.976;11.858;2024-01-30T07:37:18;15.00;;;10.30;;
16822;SDS011;8528;49.976;11.858;2024-01-30T07:39:47;14.23;;;9.27;;
16822;SDS011;8528;49.976;11.858;2024-01-30T07:42:14;12.37;;;8.73;;
16822;SDS011;8528;49.976;11.858;2024-01-30T07:44:41;12.60;;;8.57;;
16822;SDS011;8528;49.976;11.858;2024-01-30T07:47:08;11.83;;;8.37;;
16822;SDS011;8528;49.976;11.858;2024-01-30T07:49:35;14.07;;;8.50;;
16822;SDS011;8528;49.976;11.858;2024-01-30T07:52:02;13.07;;;8.37;;
16822;SDS011;8528;49.976;11.858;2024-01-30T07:54:30;12.00;;;8.13;;
16822;SDS011;8528;49.976;11.858;2024-01-30T07:57:00;8.57;;;7.40;;
16822;SDS011;8528;49.976;11.858;2024-01-30T07:59:27;10.47;;;7.37;;
16822;SDS011;8528;49.976;11.858;2024-01-30T08:01:53;11.90;;;7.77;;
16822;SDS011;8528;49.976;11.858;2024-01-30T08:04:21;11.77;;;7.83;;
16822;SDS011;8528;49.976;11.858;2024-01-30T08:06:48;11.53;;;7.37;;
16822;SDS011;8528;49.976;11.858;2024-01-30T08:09:15;12.43;;;8.43;;
16822;SDS011;8528;49.976;11.858;2024-01-30T08:11:42;13.57;;;8.93;;
16822;SDS011;8528;49.976;11.858;2024-01-30T08:14:08;13.57;;;8.73;;
16822;SDS011;8528;49.976;11.858;2024-01-30T08:16:36;13.57;;;9.57;;
16822;SDS011;8528;49.976;11.858;2024-01-30T08:19:03;16.93;;;9.37;;
16822;SDS011;8528;49.976;11.858;2024-01-30T08:21:30;13.13;;;9.57;;
16822;SDS011;8528;49.976;11.858;2024-01-30T08:23:56;12.47;;;8.80;;
16822;SDS011;8528;49.976;11.858;2024-01-30T08:26:23;9.43;;;7.40;;
16822;SDS011;8528;49.976;11.858;2024-01-30T08:28:51;12.13;;;8.60;;
16822;SDS011;8528;49.976;11.858;2024-01-30T08:31:20;11.30;;;9.20;;
16822;SDS011;8528;49.976;11.858;2024-01-30T08:33:47;20.20;;;13.77;;
16822;SDS011;8528;49.976;11.858;2024-01-30T08:36:16;21.53;;;15.13;;
16822;SDS011;8528;49.976;11.858;2024-01-30T08:38:43;20.90;;;14.33;;
16822;SDS011;8528;49.976;11.858;2024-01-30T08:41:10;23.10;;;15.83;;
16822;SDS011;8528;49.976;11.858;2024-01-30T08:43:36;20.57;;;14.67;;
16822;SDS011;8528;49.976;11.858;2024-01-30T08:46:03;18.20;;;14.30;;
16822;SDS011;8528;49.976;11.858;2024-01-30T08:48:30;16.53;;;13.00;;
16822;SDS011;8528;49.976;11.858;2024-01-30T08:50:58;13.87;;;11.50;;
16822;SDS011;8528;49.976;11.858;2024-01-30T08:53:25;14.33;;;12.07;;
16822;SDS011;8528;49.976;11.858;2024-01-30T08:55:52;13.37;;;10.87;;
16822;SDS011;8528;49.976;11.858;2024-01-30T08:58:20;13.03;;;10.53;;
16822;SDS011;8528;49.976;11.858;2024-01-30T09:00:47;11.60;;;9.70;;
16822;SDS011;8528;49.976;11.858;2024-01-30T09:03:14;15.37;;;10.60;;
16822;SDS011;8528;49.976;11.858;2024-01-30T09:05:41;13.00;;;10.43;;
16822;SDS011;8528;49.976;11.858;2024-01-30T09:08:08;12.50;;;10.50;;
16822;SDS011;8528;49.976;11.858;2024-01-30T09:10:36;11.03;;;9.93;;
16822;SDS011;8528;49.976;11.858;2024-01-30T09:13:04;9.93;;;8.90;;
16822;SDS011;8528;49.976;11.858;2024-01-30T09:15:30;9.70;;;8.40;;
16822;SDS011;8528;49.976;11.858;2024-01-30T09:17:57;10.40;;;9.30;;
16822;SDS011;8528;49.976;11.858;2024-01-30T09:20:24;9.67;;;7.73;;
16822;SDS011;8528;49.976;11.858;2024-01-30T09:22:51;11.27;;;10.07;;
16822;SDS011;8528;49.976;11.858;2024-01-30T09:25:19;9.13;;;8.23;;
16822;SDS011;8528;49.976;11.858;2024-01-30T09:27:46;8.93;;;8.03;;
16822;SDS011;8528;49.976;11.858;2024-01-30T09:30:13;8.67;;;7.70;;
16822;SDS011;8528;49.976;11.858;2024-01-30T09:32:40;9.37;;;7.73;;
16822;SDS011;8528;49.976;11.858;2024-01-30T09:35:07;8.80;;;7.70;;
16822;SDS011;8528;49.976;11.858;2024-01-30T09:37:34;9.50;;;8.50;;
16822;SDS011;8528;49.976;11.858;2024-01-30T09:40:01;8.13;;;7.33;;
16822;SDS011;8528;49.976;11.858;2024-01-30T09:42:36;9.23;;;7.70;;
16822;SDS011;8528;49.976;11.858;2024-01-30T09:45:03;10.23;;;7.80;;
16822;SDS011;8528;49.976;11.858;2024-01-30T09:47:52;8.83;;;7.93;;
16822;SDS011;8528;49.976;11.858;2024-01-30T09:50:19;11.03;;;9.83;;
16822;SDS011;8528;49.976;11.858;2024-01-30T09:52:47;11.33;;;9.20;;
16822;SDS011;8528;49.976;11.858;2024-01-30T09:55:14;11.23;;;8.83;;
16822;SDS011;8528;49.976;11.858;2024-01-30T09:57:41;10.60;;;9.60;;
16822;SDS011;8528;49.976;11.858;2024-01-30T10:00:09;11.07;;;9.83;;
16822;SDS011;8528;49.976;11.858;2024-01-30T10:02:36;10.17;;;8.30;;
16822;SDS011;8528;49.976;11.858;2024-01-30T10:05:03;13.10;;;9.80;;
16822;SDS011;8528;49.976;11.858;2024-01-30T10:07:31;10.90;;;9.40;;
16822;SDS011;8528;49.976;11.858;2024-01-30T10:09:58;11.30;;;9.50;;
16822;SDS011;8528;49.976;11.858;2024-01-30T10:12:26;10.70;;;8.90;;
16822;SDS011;8528;49.976;11.858;2024-01-30T10:14:53;9.97;;;8.93;;
16822;SDS011;8528;49.976;11.858;2024-01-30T10:17:24;14.03;;;9.73;;
16822;SDS011;8528;49.976;11.858;2024-01-30T10:19:59;11.43;;;9.03;;
16822;SDS011;8528;49.976;11.858;2024-01-30T10:22:27;11.07;;;9.00;;
16822;SDS011;8528;49.976;11.858;2024-01-30T10:24:54;10.20;;;9.07;;
16822;SDS011;8528;49.976;11.858;2024-01-30T10:27:27;10.37;;;9.27;;
16822;SDS011;8528;49.976;11.858;2024-01-30T10:29:55;9.53;;;8.53;;
16822;SDS011;8528;49.976;11.858;2024-01-30T10:32:23;10.63;;;8.70;;
16822;SDS011;8528;49.976;11.858;2024-01-30T10:34:50;9.53;;;8.00;;
16822;SDS011;8528;49.976;11.858;2024-01-30T10:37:17;9.77;;;8.77;;
16822;SDS011;8528;49.976;11.858;2024-01-30T10:39:47;8.73;;;7.60;;
16822;SDS011;8528;49.976;11.858;2024-01-30T10:42:17;10.40;;;8.30;;
16822;SDS011;8528;49.976;11.858;2024-01-30T10:47:18;10.53;;;8.80;;
16822;SDS011;8528;49.976;11.858;2024-01-30T10:49:52;10.73;;;8.57;;
16822;SDS011;8528;49.976;11.858;2024-01-30T10:52:20;11.93;;;8.57;;
16822;SDS011;8528;49.976;11.858;2024-01-30T10:54:53;11.20;;;8.80;;
16822;SDS011;8528;49.976;11.858;2024-01-30T10:57:24;10.57;;;8.70;;
16822;SDS011;8528;49.976;11.858;2024-01-30T10:59:58;10.07;;;8.43;;
16822;SDS011;8528;49.976;11.858;2024-01-30T11:02:26;9.53;;;7.40;;
16822;SDS011;8528;49.976;11.858;2024-01-30T11:04:55;11.37;;;8.73;;
16822;SDS011;8528;49.976;11.858;2024-01-30T11:07:25;12.33;;;7.90;;
16822;SDS011;8528;49.976;11.858;2024-01-30T11:09:59;11.73;;;8.37;;
16822;SDS011;8528;49.976;11.858;2024-01-30T11:12:27;12.10;;;8.60;;
16822;SDS011;8528;49.976;11.858;2024-01-30T11:15:02;9.13;;;7.93;;
16822;SDS011;8528;49.976;11.858;2024-01-30T11:20:17;15.37;;;8.40;;
16822;SDS011;8528;49.976;11.858;2024-01-30T11:22:50;13.07;;;9.47;;
16822;SDS011;8528;49.976;11.858;2024-01-30T11:25:22;11.80;;;8.70;;
16822;SDS011;8528;49.976;11.858;2024-01-30T11:27:50;11.13;;;8.60;;
16822;SDS011;8528;49.976;11.858;2024-01-30T11:30:25;11.23;;;8.67;;
16822;SDS011;8528;49.976;11.858;2024-01-30T11:33:01;11.03;;;8.27;;
16822;SDS011;8528;49.976;11.858;2024-01-30T11:35:31;10.73;;;8.63;;
16822;SDS011;8528;49.976;11.858;2024-01-30T11:38:00;10.70;;;8.37;;
16822;SDS011;8528;49.976;11.858;2024-01-30T11:40:27;10.93;;;8.37;;
16822;SDS011;8528;49.976;11.858;2024-01-30T11:42:56;11.60;;;8.93;;
16822;SDS011;8528;49.976;11.858;2024-01-30T11:45:27;10.87;;;8.27;;
16822;SDS011;8528;49.976;11.858;2024-01-30T11:47:54;10.23;;;8.33;;
16822;SDS011;8528;49.976;11.858;2024-01-30T11:50:22;13.43;;;10.20;;
16822;SDS011;8528;49.976;11.858;2024-01-30T11:52:50;13.87;;;10.07;;
16822;SDS011;8528;49.976;11.858;2024-01-30T11:55:17;14.13;;;10.13;;
16822;SDS011;8528;49.976;11.858;2024-01-30T11:57:46;17.83;;;12.00;;
16822;SDS011;8528;49.976;11.858;2024-01-30T12:00:16;15.67;;;10.73;;
16822;SDS011;8528;49.976;11.858;2024-01-30T12:02:48;23.80;;;13.10;;
16822;SDS011;8528;49.976;11.858;2024-01-30T12:05:16;18.60;;;12.87;;
16822;SDS011;8528;49.976;11.858;2024-01-30T12:07:45;13.77;;;10.20;;
16822;SDS011;8528;49.976;11.858;2024-01-30T12:10:13;12.60;;;9.67;;
16822;SDS011;8528;49.976;11.858;2024-01-30T12:12:44;15.30;;;11.00;;
16822;SDS011;8528;49.976;11.858;2024-01-30T12:15:21;17.50;;;12.53;;
16822;SDS011;8528;49.976;11.858;2024-01-30T12:17:49;14.73;;;10.90;;
16822;SDS011;8528;49.976;11.858;2024-01-30T12:20:19;15.03;;;10.27;;
16822;SDS011;8528;49.976;11.858;2024-01-30T12:22:49;13.27;;;10.57;;
16822;SDS011;8528;49.976;11.858;2024-01-30T12:25:17;12.60;;;9.90;;
16822;SDS011;8528;49.976;11.858;2024-01-30T12:27:47;11.23;;;8.93;;
16822;SDS011;8528;49.976;11.858;2024-01-30T12:30:19;17.93;;;12.33;;
16822;SDS011;8528;49.976;11.858;2024-01-30T12:32:49;12.27;;;9.07;;
16822;SDS011;8528;49.976;11.858;2024-01-30T12:35:18;18.27;;;11.60;;
16822;SDS011;8528;49.976;11.858;2024-01-30T12:37:47;20.93;;;12.30;;
16822;SDS011;8528;49.976;11.858;2024-01-30T12:40:15;15.83;;;10.63;;
16822;SDS011;8528;49.976;11.858;2024-01-30T12:42:42;14.30;;;9.57;;
16822;SDS011;8528;49.976;11.858;2024-01-30T12:45:15;13.07;;;10.50;;
16822;SDS011;8528;49.976;11.858;2024-01-30T12:47:42;10.90;;;8.90;;
16822;SDS011;8528;49.976;11.858;2024-01-30T12:50:09;14.97;;;10.10;;
16822;SDS011;8528;49.976;11.858;2024-01-30T12:52:36;16.10;;;10.10;;
16822;SDS011;8528;49.976;11.858;2024-01-30T12:55:03;14.77;;;9.47;;
16822;SDS011;8528;49.976;11.858;2024-01-30T12:57:31;14.00;;;10.57;;
16822;SDS011;8528;49.976;11.858;2024-01-30T12:59:57;12.20;;;9.40;;
16822;SDS011;8528;49.976;11.858;2024-01-30T13:02:24;11.87;;;8.63;;
16822;SDS011;8528;49.976;11.858;2024-01-30T13:04:52;11.13;;;7.80;;
16822;SDS011;8528;49.976;11.858;2024-01-30T13:07:19;10.97;;;8.13;;
16822;SDS011;8528;49.976;11.858;2024-01-30T13:09:47;19.90;;;9.63;;
16822;SDS011;8528;49.976;11.858;2024-01-30T13:12:14;12.23;;;8.30;;
16822;SDS011;8528;49.976;11.858;2024-01-30T13:14:40;9.90;;;8.00;;
16822;SDS011;8528;49.976;11.858;2024-01-30T13:17:07;7.83;;;6.73;;
16822;SDS011;8528;49.976;11.858;2024-01-30T13:19:34;13.47;;;8.50;;
16822;SDS011;8528;49.976;11.858;2024-01-30T13:22:01;12.90;;;8.43;;
16822;SDS011;8528;49.976;11.858;2024-01-30T13:24:28;12.67;;;8.53;;
16822;SDS011;8528;49.976;11.858;2024-01-30T13:26:55;12.43;;;8.67;;
16822;SDS011;8528;49.976;11.858;2024-01-30T13:29:22;9.93;;;8.33;;
16822;SDS011;8528;49.976;11.858;2024-01-30T13:31:49;9.90;;;7.60;;
16822;SDS011;8528;49.976;11.858;2024-01-30T13:34:16;10.90;;;8.87;;
16822;SDS011;8528;49.976;11.858;2024-01-30T13:36:43;11.43;;;8.03;;
16822;SDS011;8528;49.976;11.858;2024-01-30T13:39:11;12.60;;;8.60;;
16822;SDS011;8528;49.976;11.858;2024-01-30T13:41:38;12.23;;;7.90;;
16822;SDS011;8528;49.976;11.858;2024-01-30T13:44:05;12.30;;;7.83;;
16822;SDS011;8528;49.976;11.858;2024-01-30T13:46:32;10.43;;;7.93;;
16822;SDS011;8528;49.976;11.858;2024-01-30T13:48:59;11.17;;;8.47;;
16822;SDS011;8528;49.976;11.858;2024-01-30T13:51:27;11.30;;;7.53;;
16822;SDS011;8528;49.976;11.858;2024-01-30T13:53:54;13.47;;;7.90;;
16822;SDS011;8528;49.976;11.858;2024-01-30T13:56:21;14.07;;;9.10;;
16822;SDS011;8528;49.976;11.858;2024-01-30T13:58:48;9.67;;;7.77;;
16822;SDS011;8528;49.976;11.858;2024-01-30T14:01:16;10.67;;;7.90;;
16822;SDS011;8528;49.976;11.858;2024-01-30T14:03:43;14.23;;;8.57;;
16822;SDS011;8528;49.976;11.858;2024-01-30T14:06:11;11.10;;;8.13;;
16822;SDS011;8528;49.976;11.858;2024-01-30T14:08:38;14.17;;;8.40;;
16822;SDS011;8528;49.976;11.858;2024-01-30T14:11:08;15.33;;;8.67;;
16822;SDS011;8528;49.976;11.858;2024-01-30T14:13:35;14.07;;;9.30;;
16822;SDS011;8528;49.976;11.858;2024-01-30T14:16:02;10.80;;;8.57;;
16822;SDS011;8528;49.976;11.858;2024-01-30T14:18:32;10.80;;;8.47;;
16822;SDS011;8528;49.976;11.858;2024-01-30T14:20:59;12.67;;;9.40;;
16822;SDS011;8528;49.976;11.858;2024-01-30T14:23:26;14.57;;;9.90;;
16822;SDS011;8528;49.976;11.858;2024-01-30T14:25:53;12.93;;;9.13;;
16822;SDS011;8528;49.976;11.858;2024-01-30T14:28:20;12.33;;;9.10;;
16822;SDS011;8528;49.976;11.858;2024-01-30T14:30:46;13.67;;;9.07;;
16822;SDS011;8528;49.976;11.858;2024-01-30T14:33:13;16.57;;;11.03;;
16822;SDS011;8528;49.976;11.858;2024-01-30T14:35:40;16.03;;;11.47;;
16822;SDS011;8528;49.976;11.858;2024-01-30T14:38:07;18.83;;;12.13;;
16822;SDS011;8528;49.976;11.858;2024-01-30T14:40:34;22.20;;;14.53;;
16822;SDS011;8528;49.976;11.858;2024-01-30T14:43:01;18.27;;;12.87;;
16822;SDS011;8528;49.976;11.858;2024-01-30T14:45:28;19.57;;;12.60;;
16822;SDS011;8528;49.976;11.858;2024-01-30T14:47:54;14.10;;;10.00;;